Time;durP1;ratioP1;P1;durP2;ratioP2;P2;SDS_P1;SDS_P2;PMS_P1;PMS_P2;Temp;Humidity;BMP_temperature;BMP_pressure;BME280_temperature;BME280_humidity;BME280_pressure;Samples;Min_cycle;Max_cycle;Signal;HPM_P1;HPM_P2
2024/03/07 00:02:18;;;;;;;13.77;6.28;;;9.20;73.00;;;;;;5073144;28;20055;-60
2024/03/07 00:04:44;;;;;;;13.73;8.25;;;9.20;73.00;;;;;;5089690;28;20032;-60
2024/03/07 00:07:10;;;;;;;17.67;8.05;;;9.20;73.00;;;;;;5084064;28;20375;-60
2024/03/07 00:09:37;;;;;;;16.38;7.68;;;9.20;73.00;;;;;;5082597;28;20158;-60
2024/03/07 00:12:03;;;;;;;13.10;7.63;;;9.10;73.00;;;;;;5080582;28;21427;-60
2024/03/07 00:14:31;;;;;;;15.38;6.88;;;9.10;73.00;;;;;;5087005;28;20024;-60
2024/03/07 00:17:01;;;;;;;16.52;6.85;;;9.10;73.10;;;;;;5087929;28;20031;-60
2024/03/07 00:19:27;;;;;;;13.48;7.22;;;9.00;73.10;;;;;;5082052;28;20077;-60
2024/03/07 00:21:54;;;;;;;13.05;6.75;;;9.00;73.20;;;;;;5087858;28;20016;-60
2024/03/07 00:24:23;;;;;;;13.85;7.25;;;9.00;73.20;;;;;;5079069;28;20382;-60
2024/03/07 00:26:51;;;;;;;15.48;7.80;;;9.00;73.20;;;;;;5073209;28;20420;-60
2024/03/07 00:29:20;;;;;;;14.18;6.22;;;8.90;73.10;;;;;;5082282;28;20012;-60
2024/03/07 00:31:47;;;;;;;11.52;6.15;;;8.90;73.10;;;;;;5086900;28;20082;-61
2024/03/07 00:34:16;;;;;;;18.73;7.75;;;8.90;73.00;;;;;;5080215;28;20466;-60
2024/03/07 00:36:46;;;;;;;15.63;7.00;;;8.90;73.10;;;;;;5089759;28;20031;-60
2024/03/07 00:39:12;;;;;;;14.68;7.57;;;8.80;73.00;;;;;;5084117;28;20127;-60
2024/03/07 00:41:42;;;;;;;13.55;7.10;;;8.80;73.00;;;;;;5081422;28;20051;-61
2024/03/07 00:44:10;;;;;;;13.15;7.03;;;8.80;73.20;;;;;;5084279;28;20442;-60
2024/03/07 00:46:37;;;;;;;15.77;6.72;;;8.70;73.30;;;;;;5065673;28;20020;-60
2024/03/07 00:49:05;;;;;;;14.63;7.40;;;8.70;73.30;;;;;;5089264;28;20080;-64
2024/03/07 00:51:31;;;;;;;15.80;7.25;;;8.70;73.30;;;;;;5083491;28;20361;-64
2024/03/07 00:53:57;;;;;;;12.45;6.75;;;8.70;73.40;;;;;;5085875;28;20032;-64
2024/03/07 00:56:24;;;;;;;14.90;6.60;;;8.70;73.30;;;;;;5090658;28;20030;-64
2024/03/07 00:58:50;;;;;;;10.85;6.40;;;8.70;73.30;;;;;;5089715;28;20054;-64
2024/03/07 01:01:17;;;;;;;14.98;6.70;;;8.70;73.30;;;;;;5088152;28;20024;-64
2024/03/07 01:03:43;;;;;;;20.20;7.82;;;8.70;73.40;;;;;;5078135;28;20028;-64
2024/03/07 01:06:12;;;;;;;16.13;6.40;;;8.60;73.40;;;;;;5081658;28;20111;-64
2024/03/07 01:08:38;;;;;;;17.33;7.78;;;8.60;73.50;;;;;;5089674;28;20028;-64
2024/03/07 01:11:10;;;;;;;14.35;8.40;;;8.60;73.60;;;;;;5080228;28;20057;-64
2024/03/07 01:13:37;;;;;;;13.75;6.75;;;8.60;73.60;;;;;;5079370;28;20402;-64
2024/03/07 01:16:03;;;;;;;13.77;7.63;;;8.60;73.70;;;;;;5091171;28;20020;-64
2024/03/07 01:18:28;;;;;;;17.20;6.90;;;8.60;73.70;;;;;;5087012;28;20047;-64
2024/03/07 01:20:54;;;;;;;20.60;8.98;;;8.60;73.80;;;;;;5081922;28;20469;-64
2024/03/07 01:23:21;;;;;;;14.43;7.28;;;8.60;73.70;;;;;;5087351;28;20067;-64
2024/03/07 01:25:46;;;;;;;12.48;6.63;;;8.60;73.70;;;;;;5082130;28;20032;-64
2024/03/07 01:28:14;;;;;;;15.50;6.32;;;8.60;73.80;;;;;;5085794;28;20064;-65
2024/03/07 01:30:40;;;;;;;13.77;7.57;;;8.60;73.80;;;;;;5089582;28;20044;-64
2024/03/07 01:33:05;;;;;;;13.48;6.10;;;8.60;73.80;;;;;;5064293;28;20049;-64
2024/03/07 01:35:31;;;;;;;18.10;8.30;;;8.60;73.90;;;;;;5081898;28;20020;-64
2024/03/07 01:37:57;;;;;;;11.02;6.15;;;8.60;73.90;;;;;;5090760;28;20020;-64
2024/03/07 01:40:23;;;;;;;16.48;6.63;;;8.60;73.90;;;;;;5090752;28;20028;-64
2024/03/07 01:42:52;;;;;;;15.95;7.03;;;8.50;73.90;;;;;;5088989;28;20028;-64
2024/03/07 01:45:18;;;;;;;15.85;7.65;;;8.50;74.00;;;;;;5090700;28;20099;-64
2024/03/07 01:47:45;;;;;;;14.18;6.22;;;8.50;74.10;;;;;;5088570;28;20150;-64
2024/03/07 01:50:11;;;;;;;19.65;9.38;;;8.50;74.20;;;;;;5089884;28;20036;-64
2024/03/07 01:52:40;;;;;;;20.45;7.78;;;8.50;74.30;;;;;;5088359;28;20105;-64
2024/03/07 01:55:07;;;;;;;18.80;8.40;;;8.50;74.30;;;;;;5085587;28;20024;-64
2024/03/07 01:57:34;;;;;;;15.70;7.15;;;8.50;74.40;;;;;;5083417;28;20546;-64
2024/03/07 02:00:06;;;;;;;15.23;7.15;;;8.50;74.40;;;;;;5081153;28;20039;-64
2024/03/07 02:02:32;;;;;;;16.48;8.63;;;8.50;74.50;;;;;;5090091;28;20013;-64
2024/03/07 02:04:58;;;;;;;17.27;7.97;;;8.50;74.50;;;;;;5093049;28;20035;-64
2024/03/07 02:07:25;;;;;;;12.88;6.72;;;8.50;74.60;;;;;;5084823;28;20463;-64
2024/03/07 02:10:09;;;;;;;13.13;7.10;;;8.40;74.60;;;;;;5093400;28;20036;-64
2024/03/07 02:12:34;;;;;;;11.23;5.78;;;8.40;74.70;;;;;;5090850;28;20075;-65
2024/03/07 02:15:00;;;;;;;15.38;7.93;;;8.40;74.70;;;;;;5087803;28;20387;-64
2024/03/07 02:17:27;;;;;;;17.63;7.05;;;8.40;74.70;;;;;;5081799;28;20031;-65
2024/03/07 02:19:53;;;;;;;19.00;8.00;;;8.40;74.70;;;;;;5087304;28;20073;-60
2024/03/07 02:22:19;;;;;;;17.85;7.97;;;8.40;74.70;;;;;;5090990;28;20024;-60
2024/03/07 02:24:46;;;;;;;17.48;6.63;;;8.40;74.80;;;;;;5087912;28;20060;-59
2024/03/07 02:27:15;;;;;;;18.38;7.93;;;8.40;74.80;;;;;;5087657;28;20028;-60
2024/03/07 02:29:41;;;;;;;17.20;7.78;;;8.40;74.70;;;;;;5088384;28;20043;-60
2024/03/07 02:32:07;;;;;;;14.93;7.70;;;8.40;74.80;;;;;;5085446;28;20119;-64
2024/03/07 02:34:34;;;;;;;20.98;7.20;;;8.40;74.80;;;;;;5082648;28;20107;-64
2024/03/07 02:37:00;;;;;;;15.80;7.22;;;8.40;74.90;;;;;;5075130;28;20024;-64
2024/03/07 02:39:26;;;;;;;16.90;6.25;;;8.30;74.90;;;;;;5081371;28;20039;-65
2024/03/07 02:41:52;;;;;;;14.93;7.95;;;8.40;74.90;;;;;;5091997;28;20029;-64
2024/03/07 02:44:19;;;;;;;15.25;8.05;;;8.40;75.00;;;;;;5086190;28;20026;-65
2024/03/07 02:46:46;;;;;;;16.80;7.43;;;8.30;74.90;;;;;;5089683;28;20029;-64
2024/03/07 02:49:14;;;;;;;18.75;9.18;;;8.40;75.00;;;;;;5089892;28;20428;-65
2024/03/07 02:51:41;;;;;;;15.48;7.68;;;8.40;75.60;;;;;;5091751;28;20479;-65
2024/03/07 02:54:08;;;;;;;19.00;8.68;;;8.40;74.90;;;;;;5093703;28;20031;-65
2024/03/07 02:56:35;;;;;;;12.70;6.85;;;8.40;74.90;;;;;;5084971;28;20025;-64
2024/03/07 02:59:01;;;;;;;18.25;7.43;;;8.50;74.90;;;;;;5090532;28;20106;-64
2024/03/07 03:01:27;;;;;;;17.98;8.02;;;8.50;74.90;;;;;;5092849;28;20486;-65
2024/03/07 03:03:53;;;;;;;19.35;9.13;;;8.40;74.90;;;;;;5089266;28;20024;-60
2024/03/07 03:06:22;;;;;;;13.70;7.30;;;8.40;75.00;;;;;;5080124;28;20028;-60
2024/03/07 03:08:48;;;;;;;15.75;7.90;;;8.40;75.00;;;;;;5089849;28;20020;-60
2024/03/07 03:11:15;;;;;;;11.18;6.68;;;8.40;75.10;;;;;;5085643;28;20121;-60
2024/03/07 03:13:41;;;;;;;16.25;7.95;;;8.30;75.00;;;;;;5088753;28;20090;-61
2024/03/07 03:16:08;;;;;;;15.95;7.30;;;8.30;75.00;;;;;;5087788;28;20053;-60
2024/03/07 03:18:34;;;;;;;20.60;8.38;;;8.30;75.10;;;;;;5086918;28;20054;-60
2024/03/07 03:21:03;;;;;;;18.15;7.65;;;8.20;75.10;;;;;;5090727;28;20462;-60
2024/03/07 03:23:30;;;;;;;17.77;8.30;;;8.20;75.10;;;;;;5086444;28;20032;-60
2024/03/07 03:25:56;;;;;;;19.05;8.38;;;8.20;75.20;;;;;;5090780;28;20111;-60
2024/03/07 03:28:22;;;;;;;11.60;7.35;;;8.10;75.20;;;;;;5089456;28;20169;-61
2024/03/07 03:30:50;;;;;;;18.17;9.10;;;8.10;75.20;;;;;;5083504;28;20028;-61
2024/03/07 03:33:17;;;;;;;16.77;8.32;;;8.10;75.30;;;;;;5075842;28;20058;-61
2024/03/07 03:35:44;;;;;;;15.35;7.85;;;8.10;75.30;;;;;;5080849;28;20048;-60
2024/03/07 03:38:10;;;;;;;19.85;7.32;;;8.00;75.40;;;;;;5080879;28;20461;-61
2024/03/07 03:40:36;;;;;;;24.98;9.18;;;8.00;75.50;;;;;;5085685;28;20484;-61
2024/03/07 03:43:03;;;;;;;14.73;8.18;;;8.00;75.60;;;;;;5089583;28;20043;-61
2024/03/07 03:45:29;;;;;;;18.48;7.13;;;7.90;75.60;;;;;;5088637;28;20024;-61
2024/03/07 03:47:55;;;;;;;19.30;8.02;;;7.90;75.70;;;;;;5088827;28;20030;-61
2024/03/07 03:50:24;;;;;;;15.63;5.97;;;7.90;75.60;;;;;;5090077;28;20028;-60
2024/03/07 03:52:50;;;;;;;18.27;9.32;;;7.90;75.60;;;;;;5088292;28;20036;-61
2024/03/07 03:55:16;;;;;;;12.90;6.75;;;7.90;75.70;;;;;;5086550;28;20107;-61
2024/03/07 03:57:43;;;;;;;16.75;8.02;;;7.80;75.80;;;;;;5089976;28;20099;-61
2024/03/07 04:00:13;;;;;;;15.75;7.93;;;7.80;75.90;;;;;;5090049;28;20028;-61
2024/03/07 04:02:41;;;;;;;17.88;8.40;;;7.80;75.90;;;;;;5082675;28;20450;-61
2024/03/07 04:05:11;;;;;;;19.58;8.30;;;7.70;75.90;;;;;;5084858;28;20028;-61
2024/03/07 04:07:38;;;;;;;15.55;7.00;;;7.70;76.00;;;;;;5075311;28;20039;-60
2024/03/07 04:10:08;;;;;;;16.63;8.13;;;7.70;76.00;;;;;;5082110;28;20032;-61
2024/03/07 04:12:38;;;;;;;17.27;8.77;;;7.70;76.10;;;;;;5077675;28;20063;-61
2024/03/07 04:15:08;;;;;;;12.35;6.32;;;7.70;76.10;;;;;;5087719;28;20423;-60
2024/03/07 04:17:38;;;;;;;15.73;7.20;;;7.70;76.10;;;;;;5088684;28;20524;-61
2024/03/07 04:20:05;;;;;;;15.30;8.88;;;7.70;76.10;;;;;;5074622;28;20086;-61
2024/03/07 04:22:32;;;;;;;19.80;9.50;;;7.70;76.20;;;;;;5078693;28;20367;-61
2024/03/07 04:24:59;;;;;;;15.38;7.60;;;7.60;76.10;;;;;;5087232;28;20024;-65
2024/03/07 04:27:26;;;;;;;15.10;8.18;;;7.60;76.20;;;;;;5090166;28;20467;-65
2024/03/07 04:29:52;;;;;;;12.75;6.60;;;7.60;76.20;;;;;;5082266;28;20024;-64
2024/03/07 04:32:18;;;;;;;15.73;7.43;;;7.60;76.20;;;;;;5090135;28;20090;-65
2024/03/07 04:34:47;;;;;;;13.82;7.47;;;7.60;76.20;;;;;;5084666;28;20479;-61
2024/03/07 04:37:13;;;;;;;17.98;9.35;;;7.60;76.20;;;;;;5083694;28;20107;-61
2024/03/07 04:39:39;;;;;;;16.75;6.53;;;7.60;76.20;;;;;;5085661;28;20024;-61
2024/03/07 04:42:07;;;;;;;18.98;8.25;;;7.50;76.30;;;;;;5075852;28;20111;-61
2024/03/07 04:44:35;;;;;;;14.77;8.65;;;7.50;76.40;;;;;;5075689;28;20044;-60
2024/03/07 04:47:02;;;;;;;17.55;8.90;;;7.50;76.50;;;;;;5088683;28;21064;-61
2024/03/07 04:49:29;;;;;;;14.60;7.80;;;7.50;76.50;;;;;;5071935;28;20021;-60
2024/03/07 04:51:57;;;;;;;19.23;8.32;;;7.50;76.50;;;;;;5088316;28;20038;-61
2024/03/07 04:54:24;;;;;;;12.90;7.10;;;7.40;76.50;;;;;;5081931;28;20103;-61
2024/03/07 04:56:52;;;;;;;14.90;8.90;;;7.40;76.60;;;;;;5079746;28;20020;-60
2024/03/07 04:59:19;;;;;;;18.08;7.38;;;7.40;76.60;;;;;;5089672;28;20505;-64
2024/03/07 05:01:47;;;;;;;17.15;8.60;;;7.30;76.50;;;;;;5079319;28;20055;-64
2024/03/07 05:04:14;;;;;;;12.85;7.60;;;7.30;76.50;;;;;;5079487;28;20077;-64
2024/03/07 05:06:40;;;;;;;18.50;9.32;;;7.30;76.50;;;;;;5085559;28;20036;-64
2024/03/07 05:09:08;;;;;;;13.20;7.90;;;7.30;76.40;;;;;;5077812;28;20345;-64
2024/03/07 05:11:35;;;;;;;16.30;7.22;;;7.30;76.40;;;;;;5085823;28;20119;-61
2024/03/07 05:14:01;;;;;;;19.92;9.10;;;7.30;76.40;;;;;;5090588;28;20467;-65
2024/03/07 05:16:28;;;;;;;15.50;7.75;;;7.30;76.40;;;;;;5084058;28;20024;-64
2024/03/07 05:18:58;;;;;;;17.95;7.57;;;7.30;76.40;;;;;;5090941;28;20099;-65
2024/03/07 05:24:05;;;;;;;15.10;7.18;;;7.30;76.50;;;;;;5091245;28;20067;-65
2024/03/07 05:26:37;;;;;;;14.50;7.38;;;7.20;76.30;;;;;;5090805;28;20097;-65
2024/03/07 05:29:09;;;;;;;14.00;7.75;;;7.20;76.40;;;;;;5079326;28;20016;-64
2024/03/07 05:31:37;;;;;;;12.50;7.13;;;7.20;76.40;;;;;;5078620;28;20567;-65
2024/03/07 05:34:08;;;;;;;16.35;7.10;;;7.20;76.50;;;;;;5085357;28;20417;-64
2024/03/07 05:36:46;;;;;;;17.63;8.37;;;7.20;76.50;;;;;;5090990;28;20028;-64
2024/03/07 05:39:17;;;;;;;16.25;7.72;;;7.10;76.50;;;;;;5082861;28;20025;-64
2024/03/07 05:41:48;;;;;;;11.60;6.18;;;7.10;76.50;;;;;;5093639;28;20039;-64
2024/03/07 05:44:14;;;;;;;18.20;7.75;;;7.10;76.50;;;;;;5089497;28;20031;-61
2024/03/07 05:46:45;;;;;;;14.32;8.13;;;7.10;76.50;;;;;;5082524;28;20150;-62
2024/03/07 05:49:15;;;;;;;17.95;8.57;;;7.00;76.50;;;;;;5087002;28;20016;-64
2024/03/07 05:51:44;;;;;;;14.25;6.07;;;7.00;76.50;;;;;;5087836;28;20155;-64
2024/03/07 05:54:12;;;;;;;14.95;7.00;;;7.00;76.50;;;;;;5084767;28;20103;-64
2024/03/07 05:56:39;;;;;;;14.10;7.15;;;7.00;76.60;;;;;;5094702;28;20032;-64
2024/03/07 05:59:07;;;;;;;12.55;6.72;;;7.00;76.60;;;;;;5090607;28;20078;-64
2024/03/07 06:01:34;;;;;;;21.38;8.23;;;7.00;76.50;;;;;;5087446;28;20123;-64
2024/03/07 06:04:00;;;;;;;10.38;6.70;;;6.90;76.50;;;;;;5093124;28;20028;-65
2024/03/07 06:06:27;;;;;;;13.43;6.95;;;6.90;76.50;;;;;;5092357;28;20479;-65
2024/03/07 06:08:53;;;;;;;14.93;7.03;;;6.90;76.50;;;;;;5082833;28;20024;-64
2024/03/07 06:11:21;;;;;;;11.30;5.90;;;6.90;76.50;;;;;;5090514;28;20054;-64
2024/03/07 06:13:47;;;;;;;14.93;7.53;;;6.90;76.50;;;;;;5092258;28;20024;-64
2024/03/07 06:16:14;;;;;;;10.82;6.78;;;6.80;76.50;;;;;;5094016;28;20107;-64
2024/03/07 06:18:41;;;;;;;13.68;6.88;;;6.80;76.50;;;;;;5087786;28;20408;-65
2024/03/07 06:21:08;;;;;;;11.48;5.88;;;6.80;76.50;;;;;;5083735;28;20044;-65
2024/03/07 06:23:34;;;;;;;15.50;8.13;;;6.80;76.50;;;;;;5088882;28;20032;-65
2024/03/07 06:26:00;;;;;;;13.38;7.43;;;6.80;76.60;;;;;;5089946;28;20406;-65
2024/03/07 06:28:29;;;;;;;16.02;8.23;;;6.70;76.50;;;;;;5092718;28;20038;-65
2024/03/07 06:30:55;;;;;;;12.35;6.18;;;6.70;76.50;;;;;;5084998;28;20050;-65
2024/03/07 06:33:21;;;;;;;11.68;6.80;;;6.80;77.20;;;;;;5091564;28;20024;-64
2024/03/07 06:35:48;;;;;;;14.82;7.38;;;6.70;76.50;;;;;;5084932;28;20110;-64
2024/03/07 06:38:13;;;;;;;13.23;7.28;;;6.70;76.50;;;;;;5089559;28;20020;-65
2024/03/07 06:40:40;;;;;;;13.80;6.60;;;6.80;76.60;;;;;;5091084;28;20039;-65
2024/03/07 06:43:06;;;;;;;16.92;6.95;;;6.80;76.50;;;;;;5091218;28;20055;-65
2024/03/07 06:45:36;;;;;;;13.02;7.20;;;6.80;76.60;;;;;;5089859;28;20027;-64
2024/03/07 06:48:08;;;;;;;12.50;5.95;;;6.80;76.50;;;;;;5083844;28;20021;-64
2024/03/07 06:50:35;;;;;;;12.30;6.40;;;6.80;76.50;;;;;;5091631;28;20031;-64
2024/03/07 06:53:01;;;;;;;16.40;6.43;;;6.80;76.50;;;;;;5090510;28;20059;-65
2024/03/07 06:55:27;;;;;;;8.40;5.55;;;6.80;76.40;;;;;;5092117;28;20016;-64
2024/03/07 06:57:56;;;;;;;12.68;6.18;;;6.80;76.40;;;;;;5087680;28;20065;-65
2024/03/07 07:00:22;;;;;;;11.77;6.38;;;6.80;76.40;;;;;;5087229;28;20356;-64
2024/03/07 07:02:49;;;;;;;13.48;7.22;;;6.90;76.40;;;;;;5091913;28;20039;-65
2024/03/07 07:05:15;;;;;;;12.48;6.40;;;6.90;76.20;;;;;;5092256;28;20035;-64
2024/03/07 07:07:41;;;;;;;10.93;6.25;;;7.00;76.10;;;;;;5085825;28;20033;-65
2024/03/07 07:10:15;;;;;;;13.60;6.47;;;7.00;76.10;;;;;;5091494;28;20036;-64
2024/03/07 07:12:45;;;;;;;15.70;6.93;;;7.00;76.00;;;;;;5086492;28;20475;-63
2024/03/07 07:15:12;;;;;;;11.88;6.25;;;7.10;76.00;;;;;;5089489;28;20020;-65
2024/03/07 07:17:38;;;;;;;16.17;7.10;;;7.10;75.90;;;;;;5087903;28;20050;-65
2024/03/07 07:20:10;;;;;;;9.38;5.93;;;7.10;75.80;;;;;;5081000;28;20032;-63
2024/03/07 07:22:37;;;;;;;8.65;5.32;;;7.10;75.80;;;;;;5089939;28;20368;-65
2024/03/07 07:25:04;;;;;;;11.52;5.07;;;7.10;76.00;;;;;;5086436;28;20033;-64
2024/03/07 07:27:32;;;;;;;10.30;5.25;;;7.10;76.00;;;;;;5090455;28;20031;-63
2024/03/07 07:29:57;;;;;;;18.10;6.82;;;7.10;75.90;;;;;;5089185;28;20622;-64
2024/03/07 07:32:23;;;;;;;10.07;5.55;;;7.10;75.90;;;;;;5085159;28;20029;-64
2024/03/07 07:34:49;;;;;;;9.85;5.05;;;7.20;75.90;;;;;;5081920;28;20028;-64
2024/03/07 07:37:15;;;;;;;10.48;5.32;;;7.20;75.80;;;;;;5078369;28;20425;-64
2024/03/07 07:39:40;;;;;;;8.05;5.28;;;7.20;75.70;;;;;;5084975;28;20025;-65
2024/03/07 07:42:06;;;;;;;11.50;4.75;;;7.20;75.60;;;;;;5077284;28;20574;-60
2024/03/07 07:44:33;;;;;;;8.95;5.00;;;7.30;75.70;;;;;;5084669;28;20025;-60
2024/03/07 07:46:59;;;;;;;10.40;5.38;;;7.30;75.70;;;;;;5080661;28;20058;-61
2024/03/07 07:49:25;;;;;;;9.65;5.28;;;7.30;75.50;;;;;;5080597;28;20023;-61
2024/03/07 07:51:50;;;;;;;11.05;4.93;;;7.40;75.50;;;;;;5083360;28;20498;-61
2024/03/07 07:54:17;;;;;;;11.10;4.88;;;7.40;75.40;;;;;;5084475;28;20035;-61
2024/03/07 07:56:43;;;;;;;9.90;5.03;;;7.50;75.30;;;;;;5082995;28;20020;-61
2024/03/07 07:59:09;;;;;;;11.70;5.07;;;7.50;75.20;;;;;;5078428;28;20387;-64
2024/03/07 08:01:35;;;;;;;12.77;5.88;;;7.60;75.10;;;;;;5085343;28;20075;-64
2024/03/07 08:04:00;;;;;;;10.13;4.70;;;7.60;75.00;;;;;;5087058;28;20028;-61
2024/03/07 08:06:27;;;;;;;11.95;5.80;;;7.70;74.90;;;;;;5087208;28;20032;-61
2024/03/07 08:08:53;;;;;;;8.93;4.93;;;7.70;74.90;;;;;;5078394;28;20043;-63
2024/03/07 08:11:19;;;;;;;9.40;5.57;;;7.80;74.80;;;;;;5086182;28;20048;-61
2024/03/07 08:13:47;;;;;;;10.65;5.85;;;7.80;74.70;;;;;;5081115;28;20028;-61
2024/03/07 08:16:13;;;;;;;8.75;4.20;;;7.80;74.60;;;;;;5086156;28;20040;-61
2024/03/07 08:18:38;;;;;;;10.80;4.53;;;7.90;74.50;;;;;;5081190;28;20028;-61
2024/03/07 08:21:05;;;;;;;9.90;4.45;;;7.90;74.40;;;;;;5067679;28;20047;-61
2024/03/07 08:23:31;;;;;;;9.30;4.68;;;7.90;74.40;;;;;;5075310;28;20029;-61
2024/03/07 08:25:57;;;;;;;10.38;4.28;;;8.00;74.30;;;;;;5081980;28;20518;-64
2024/03/07 08:28:24;;;;;;;9.23;5.53;;;8.00;74.10;;;;;;5082071;28;20020;-61
2024/03/07 08:30:49;;;;;;;8.45;4.90;;;8.10;74.00;;;;;;5085881;28;20044;-64
2024/03/07 08:33:15;;;;;;;8.05;3.72;;;8.20;73.80;;;;;;5088987;28;20580;-64
2024/03/07 08:35:41;;;;;;;8.80;5.00;;;8.20;73.60;;;;;;5080755;28;20459;-64
2024/03/07 08:38:08;;;;;;;11.52;4.68;;;8.30;73.60;;;;;;5077704;28;20039;-64
2024/03/07 08:40:34;;;;;;;5.88;3.45;;;8.40;73.40;;;;;;5082873;28;20059;-63
2024/03/07 08:43:00;;;;;;;12.55;4.70;;;8.50;73.30;;;;;;5089552;28;20479;-64
2024/03/07 08:45:27;;;;;;;9.50;4.78;;;8.50;72.90;;;;;;5089506;28;20390;-60
2024/03/07 08:47:54;;;;;;;7.70;4.57;;;8.50;72.60;;;;;;5081314;28;20023;-61
2024/03/07 08:50:20;;;;;;;9.10;5.07;;;8.60;72.70;;;;;;5072663;28;20086;-61
2024/03/07 08:52:50;;;;;;;9.50;4.50;;;8.60;72.50;;;;;;5083249;28;20029;-62
2024/03/07 08:55:19;;;;;;;8.48;4.85;;;8.70;72.30;;;;;;5082474;28;20396;-61
2024/03/07 08:57:49;;;;;;;10.18;4.70;;;8.70;72.30;;;;;;5087121;28;20024;-61
2024/03/07 09:00:22;;;;;;;8.20;4.85;;;8.80;72.10;;;;;;5083169;28;20050;-61
2024/03/07 09:02:52;;;;;;;6.35;3.35;;;8.90;72.00;;;;;;5085998;28;20032;-61
2024/03/07 09:05:18;;;;;;;6.82;3.03;;;9.00;72.00;;;;;;5082613;28;20029;-61
2024/03/07 09:07:46;;;;;;;6.50;3.70;;;9.10;71.80;;;;;;5082146;28;20032;-61
2024/03/07 09:10:12;;;;;;;8.32;3.95;;;9.10;71.50;;;;;;5078020;28;20494;-61
2024/03/07 09:12:38;;;;;;;10.30;5.20;;;9.20;71.50;;;;;;5074814;28;20036;-61
2024/03/07 09:15:04;;;;;;;7.57;4.40;;;9.20;71.40;;;;;;5079013;28;20070;-61
2024/03/07 09:17:30;;;;;;;8.10;3.60;;;9.30;71.40;;;;;;5075699;28;20024;-61
2024/03/07 09:19:56;;;;;;;7.85;4.47;;;9.50;71.30;;;;;;5085044;28;20039;-61
2024/03/07 09:22:21;;;;;;;8.63;4.18;;;9.60;71.10;;;;;;5074993;28;20509;-62
2024/03/07 09:24:47;;;;;;;7.22;3.83;;;9.70;70.90;;;;;;5084494;28;20122;-61
2024/03/07 09:27:14;;;;;;;16.25;5.75;;;9.90;70.60;;;;;;5077820;28;20467;-61
2024/03/07 09:29:41;;;;;;;10.70;4.18;;;10.00;70.40;;;;;;5078349;28;20840;-61
2024/03/07 09:32:09;;;;;;;8.93;5.05;;;10.10;70.10;;;;;;5082086;28;20032;-61
2024/03/07 09:34:38;;;;;;;6.55;3.78;;;10.20;70.00;;;;;;5084276;28;20447;-61
2024/03/07 09:37:04;;;;;;;8.18;3.75;;;10.40;69.80;;;;;;5077625;28;20030;-61
2024/03/07 09:39:34;;;;;;;7.57;3.88;;;10.40;69.60;;;;;;5081533;28;20036;-60
2024/03/07 09:42:05;;;;;;;7.07;4.30;;;10.50;70.00;;;;;;5081155;28;20032;-61
2024/03/07 09:44:33;;;;;;;7.35;3.75;;;10.60;69.10;;;;;;5079249;28;20044;-62
2024/03/07 09:47:00;;;;;;;6.95;3.65;;;10.70;69.10;;;;;;5078869;28;20036;-66
2024/03/07 09:49:28;;;;;;;7.47;4.35;;;10.90;69.10;;;;;;5082850;28;20033;-66
2024/03/07 09:51:56;;;;;;;6.63;4.35;;;11.00;68.60;;;;;;5083577;28;20034;-66
2024/03/07 09:54:24;;;;;;;7.85;3.65;;;11.10;68.50;;;;;;5081805;28;20060;-66
2024/03/07 09:56:57;;;;;;;8.48;4.40;;;11.20;68.20;;;;;;5086441;28;20035;-66
2024/03/07 09:59:26;;;;;;;8.50;3.95;;;11.40;68.00;;;;;;5078206;28;20024;-66
2024/03/07 10:01:57;;;;;;;7.30;3.85;;;11.40;68.00;;;;;;5075179;28;20047;-66
2024/03/07 10:04:45;;;;;;;6.95;3.58;;;11.50;67.30;;;;;;5079215;28;20054;-66
2024/03/07 10:07:12;;;;;;;8.90;4.50;;;11.60;67.00;;;;;;5085829;28;20413;-65
2024/03/07 10:09:40;;;;;;;9.32;4.80;;;11.70;66.90;;;;;;5079774;28;20033;-66
2024/03/07 10:12:12;;;;;;;10.18;5.05;;;11.70;66.30;;;;;;5078422;28;20051;-65
2024/03/07 10:14:38;;;;;;;11.10;4.78;;;11.60;65.60;;;;;;5078516;28;20154;-61
2024/03/07 10:17:05;;;;;;;8.32;4.78;;;11.50;65.30;;;;;;5082648;28;20028;-60
2024/03/07 10:19:31;;;;;;;7.53;4.15;;;11.40;65.70;;;;;;5081337;28;20024;-59
2024/03/07 10:22:01;;;;;;;7.57;3.70;;;11.40;66.00;;;;;;5080148;28;20047;-65
2024/03/07 10:24:27;;;;;;;7.65;4.13;;;11.40;65.70;;;;;;5082993;28;20425;-66
2024/03/07 10:26:58;;;;;;;9.32;4.65;;;11.50;65.80;;;;;;5085177;28;20395;-66
2024/03/07 10:29:23;;;;;;;6.38;3.60;;;11.50;65.70;;;;;;5086267;28;20443;-60
2024/03/07 10:31:49;;;;;;;10.65;4.15;;;11.60;65.60;;;;;;5081015;28;20088;-59
2024/03/07 10:34:18;;;;;;;7.45;4.03;;;11.60;65.30;;;;;;5089032;28;20507;-59
2024/03/07 10:36:45;;;;;;;10.32;3.92;;;11.50;65.00;;;;;;5082959;28;20287;-60
2024/03/07 10:39:21;;;;;;;8.40;4.95;;;11.50;65.10;;;;;;5085072;28;20031;-65
2024/03/07 10:41:49;;;;;;;8.73;3.55;;;11.50;65.00;;;;;;5084628;28;20035;-66
2024/03/07 10:44:29;;;;;;;8.02;4.47;;;11.60;65.10;;;;;;5089901;28;20502;-65
2024/03/07 10:46:57;;;;;;;11.80;3.55;;;11.70;65.00;;;;;;5079808;28;20034;-65
2024/03/07 10:49:28;;;;;;;8.90;3.50;;;11.90;64.50;;;;;;5090004;28;20151;-65
2024/03/07 10:52:12;;;;;;;8.98;4.20;;;11.90;64.20;;;;;;5080363;28;20175;-65
2024/03/07 10:55:07;;;;;;;7.05;3.97;;;12.10;64.20;;;;;;5089397;28;20042;-65
2024/03/07 10:57:55;;;;;;;6.60;3.47;;;12.10;63.60;;;;;;5087378;28;20106;-64
2024/03/07 11:00:35;;;;;;;10.32;4.38;;;12.00;63.40;;;;;;5094282;28;20032;-64
2024/03/07 11:03:06;;;;;;;8.30;4.50;;;12.00;63.10;;;;;;5088632;28;20013;-65
2024/03/07 11:05:33;;;;;;;10.27;4.45;;;12.00;62.90;;;;;;5082516;28;20089;-64
2024/03/07 11:08:03;;;;;;;6.88;3.45;;;11.90;63.10;;;;;;5083081;28;20028;-65
2024/03/07 11:10:30;;;;;;;8.80;3.85;;;11.90;63.40;;;;;;5086073;28;20062;-64
2024/03/07 11:12:58;;;;;;;11.63;4.38;;;11.90;63.50;;;;;;5086611;28;20047;-61
2024/03/07 11:15:27;;;;;;;7.30;3.85;;;11.90;63.50;;;;;;5073535;28;20082;-61
2024/03/07 11:17:54;;;;;;;7.00;3.17;;;11.90;63.40;;;;;;5079778;28;20348;-61
2024/03/07 11:20:21;;;;;;;9.57;5.00;;;11.90;63.40;;;;;;5087663;28;20051;-65
2024/03/07 11:22:49;;;;;;;7.40;4.03;;;11.80;63.40;;;;;;5084709;28;20020;-65
2024/03/07 11:25:18;;;;;;;6.78;4.40;;;11.80;63.60;;;;;;5082124;28;20024;-64
2024/03/07 11:27:53;;;;;;;8.90;4.32;;;11.90;63.40;;;;;;5075439;28;20027;-65
2024/03/07 11:30:21;;;;;;;11.27;4.05;;;11.90;63.30;;;;;;5088314;28;20032;-65
2024/03/07 11:32:49;;;;;;;8.48;4.22;;;11.90;63.30;;;;;;5090033;28;20032;-64
2024/03/07 11:35:15;;;;;;;9.52;4.07;;;11.90;63.50;;;;;;5091776;28;20028;-64
2024/03/07 11:37:47;;;;;;;9.15;4.57;;;12.00;63.20;;;;;;5091085;28;20077;-65
2024/03/07 11:40:26;;;;;;;6.05;3.28;;;12.10;63.00;;;;;;5091035;28;20103;-64
2024/03/07 11:42:53;;;;;;;8.23;4.60;;;12.30;63.00;;;;;;5087155;28;20061;-65
2024/03/07 11:45:32;;;;;;;8.35;4.18;;;12.50;62.80;;;;;;5087573;28;20470;-65
2024/03/07 11:48:09;;;;;;;6.32;3.78;;;12.60;62.40;;;;;;5087445;28;20016;-65
2024/03/07 11:50:41;;;;;;;9.43;4.45;;;12.70;62.00;;;;;;5088031;28;20032;-65
2024/03/07 11:53:08;;;;;;;8.85;3.63;;;12.80;61.80;;;;;;5088294;28;20102;-65
2024/03/07 11:55:51;;;;;;;12.40;4.30;;;12.80;61.70;;;;;;5088018;28;20016;-65
2024/03/07 11:58:23;;;;;;;6.47;3.30;;;12.90;61.90;;;;;;5076872;28;20056;-65
2024/03/07 12:00:53;;;;;;;7.65;4.68;;;13.00;61.70;;;;;;5080157;28;20097;-65
2024/03/07 12:03:25;;;;;;;7.07;3.30;;;13.20;61.40;;;;;;5084852;28;20363;-65
2024/03/07 12:05:52;;;;;;;7.75;4.28;;;13.40;61.20;;;;;;5088349;28;20444;-65
2024/03/07 12:08:19;;;;;;;5.15;2.97;;;13.50;61.10;;;;;;5082608;28;20099;-65
2024/03/07 12:10:45;;;;;;;7.53;3.10;;;13.60;60.70;;;;;;5082172;28;20024;-65
2024/03/07 12:13:12;;;;;;;7.05;3.33;;;13.90;60.30;;;;;;5083232;28;20024;-65
2024/03/07 12:15:39;;;;;;;7.05;4.13;;;14.30;60.00;;;;;;5087756;28;20025;-65
2024/03/07 12:18:08;;;;;;;6.72;3.42;;;14.70;58.60;;;;;;5079727;28;20036;-65
2024/03/07 12:20:40;;;;;;;7.28;3.45;;;15.00;58.30;;;;;;5082084;28;20481;-61
2024/03/07 12:23:11;;;;;;;6.45;4.45;;;15.20;57.50;;;;;;5082375;28;20028;-61
2024/03/07 12:25:38;;;;;;;6.55;3.50;;;15.30;56.80;;;;;;5084517;28;20037;-61
2024/03/07 12:28:10;;;;;;;6.43;2.90;;;15.40;57.00;;;;;;5078092;28;20111;-62
2024/03/07 12:30:51;;;;;;;7.15;3.83;;;15.40;56.50;;;;;;5080649;28;20098;-61
2024/03/07 12:33:19;;;;;;;7.55;3.65;;;15.40;56.60;;;;;;5083879;28;20063;-61
2024/03/07 12:35:47;;;;;;;5.28;3.00;;;15.40;56.90;;;;;;5071739;28;20042;-61
2024/03/07 12:38:16;;;;;;;8.52;4.00;;;15.40;56.90;;;;;;5080136;28;20044;-61
2024/03/07 12:40:43;;;;;;;4.13;2.72;;;15.40;57.20;;;;;;5074349;28;20021;-61
2024/03/07 12:43:16;;;;;;;9.80;3.38;;;15.30;57.20;;;;;;5081487;28;20081;-62
2024/03/07 12:45:49;;;;;;;6.07;3.25;;;15.30;57.10;;;;;;5075944;28;20096;-64
2024/03/07 12:48:16;;;;;;;5.07;3.00;;;15.00;57.40;;;;;;5086080;28;20044;-61
2024/03/07 12:50:45;;;;;;;7.15;3.90;;;14.90;57.70;;;;;;5086172;28;20034;-65
2024/03/07 12:53:11;;;;;;;7.55;4.38;;;14.80;57.60;;;;;;5086081;28;20028;-65
2024/03/07 12:55:44;;;;;;;5.50;3.55;;;14.70;58.00;;;;;;5081866;28;20238;-65